Time;durP1;ratioP1;P1;durP2;ratioP2;P2;SDS_P1;SDS_P2;PMS_P1;PMS_P2;Temp;Humidity;BMP_temperature;BMP_pressure;BME280_temperature;BME280_humidity;BME280_pressure;Samples;Min_cycle;Max_cycle;Signal;HPM_P1;HPM_P2
2022/02/26 00:02:21;;;;;;;0.30;0.30;;;;;;;;;;1843711;77;26382;-49
2022/02/26 00:04:49;;;;;;;0.40;0.40;;;;;;;;;;1848164;77;26307;-48
2022/02/26 00:07:16;;;;;;;0.45;0.45;;;;;;;;;;1848398;77;26323;-47
2022/02/26 00:09:43;;;;;;;0.20;0.20;;;;;;;;;;1849168;77;26325;-45
2022/02/26 00:12:11;;;;;;;0.40;0.40;;;;;;;;;;1845423;77;26725;-44
2022/02/26 00:14:39;;;;;;;0.40;0.40;;;;;;;;;;1845729;77;26261;-46
2022/02/26 00:17:06;;;;;;;0.50;0.50;;;;;;;;;;1847549;77;26359;-45
2022/02/26 00:22:12;;;;;;;0.40;0.40;;;;;;;;;;1907834;74;27464;-44
2022/02/26 00:24:39;;;;;;;0.23;0.23;;;;;;;;;;1886680;75;26347;-45
2022/02/26 00:27:06;;;;;;;0.40;0.40;;;;;;;;;;1889431;75;26386;-44
2022/02/26 00:29:34;;;;;;;0.30;0.30;;;;;;;;;;1884228;75;26244;-45
2022/02/26 00:32:03;;;;;;;0.35;0.35;;;;;;;;;;1883321;75;26369;-51
2022/02/26 00:34:31;;;;;;;0.35;0.30;;;;;;;;;;1884808;75;26607;-46
2022/02/26 00:36:58;;;;;;;0.30;0.30;;;;;;;;;;1887355;75;26266;-45
2022/02/26 00:39:27;;;;;;;0.28;0.28;;;;;;;;;;1890071;75;26741;-46
2022/02/26 00:41:54;;;;;;;0.28;0.28;;;;;;;;;;1883911;75;26255;-44
2022/02/26 00:44:22;;;;;;;0.28;0.28;;;;;;;;;;1891828;75;26802;-44
2022/02/26 00:46:49;;;;;;;0.40;0.40;;;;;;;;;;1890848;75;26331;-46
2022/02/26 00:52:02;;;;;;;0.33;0.33;;;;;;;;;;1891718;75;26277;-46
2022/02/26 00:54:30;;;;;;;0.25;0.25;;;;;;;;;;1892026;75;26199;-46
2022/02/26 00:56:57;;;;;;;0.20;0.20;;;;;;;;;;1867440;75;26291;-46
2022/02/26 00:59:25;;;;;;;0.35;0.35;;;;;;;;;;1868697;75;26287;-47
2022/02/26 01:01:52;;;;;;;0.20;0.20;;;;;;;;;;1859449;76;26216;-45
2022/02/26 01:04:19;;;;;;;0.25;0.25;;;;;;;;;;1869601;76;26623;-45
2022/02/26 01:06:47;;;;;;;0.25;0.25;;;;;;;;;;1864186;76;26265;-44
2022/02/26 01:09:14;;;;;;;0.35;0.35;;;;;;;;;;1854284;76;26256;-44
2022/02/26 01:11:41;;;;;;;0.37;0.37;;;;;;;;;;1854990;76;26281;-47
2022/02/26 01:14:09;;;;;;;0.20;0.20;;;;;;;;;;1874292;76;26330;-44
2022/02/26 01:16:37;;;;;;;0.23;0.23;;;;;;;;;;1869561;76;26737;-45
2022/02/26 01:19:04;;;;;;;0.20;0.20;;;;;;;;;;1864585;75;26347;-44
2022/02/26 01:21:32;;;;;;;0.20;0.20;;;;;;;;;;1882239;76;26285;-48
2022/02/26 01:23:59;;;;;;;0.30;0.30;;;;;;;;;;1869949;76;26575;-45
2022/02/26 01:26:27;;;;;;;1.35;0.50;;;;;;;;;;1856943;76;26262;-45
2022/02/26 01:28:55;;;;;;;0.30;0.30;;;;;;;;;;1865678;76;25654;-45
2022/02/26 01:31:22;;;;;;;1.30;0.20;;;;;;;;;;1877092;75;26308;-45
2022/02/26 01:33:50;;;;;;;0.20;0.20;;;;;;;;;;1888110;76;26637;-46
2022/02/26 01:36:18;;;;;;;0.28;0.28;;;;;;;;;;1874403;75;26273;-46
2022/02/26 01:38:45;;;;;;;0.30;0.30;;;;;;;;;;1862367;76;26769;-45
2022/02/26 01:41:12;;;;;;;0.20;0.20;;;;;;;;;;1882663;76;26852;-44
2022/02/26 01:43:40;;;;;;;0.20;0.20;;;;;;;;;;1864815;76;26705;-44
2022/02/26 01:46:10;;;;;;;0.20;0.20;;;;;;;;;;1887228;76;26268;-46
2022/02/26 01:48:37;;;;;;;0.20;0.17;;;;;;;;;;1880730;76;26773;-44
2022/02/26 01:51:06;;;;;;;0.25;0.25;;;;;;;;;;1880883;74;26323;-47
2022/02/26 01:53:34;;;;;;;0.30;0.30;;;;;;;;;;1885780;76;27503;-44
2022/02/26 01:56:03;;;;;;;0.20;0.20;;;;;;;;;;1857936;76;26307;-47
2022/02/26 01:58:31;;;;;;;0.35;0.33;;;;;;;;;;1864471;76;26310;-46
2022/02/26 02:00:58;;;;;;;0.30;0.30;;;;;;;;;;1878810;75;27580;-45
2022/02/26 02:03:25;;;;;;;0.30;0.30;;;;;;;;;;1875854;76;26201;-45
2022/02/26 02:05:54;;;;;;;0.30;0.30;;;;;;;;;;1882131;76;26260;-45
2022/02/26 02:08:21;;;;;;;0.37;0.37;;;;;;;;;;1874001;76;26373;-44
2022/02/26 02:10:50;;;;;;;0.20;0.20;;;;;;;;;;1884670;75;26253;-45
2022/02/26 02:13:18;;;;;;;0.10;0.10;;;;;;;;;;1886080;76;26289;-44
2022/02/26 02:15:46;;;;;;;0.30;0.30;;;;;;;;;;1878729;76;26275;-45
2022/02/26 02:18:15;;;;;;;0.13;0.13;;;;;;;;;;1880978;75;26325;-46
2022/02/26 02:20:43;;;;;;;0.30;0.23;;;;;;;;;;1887614;76;26276;-47
2022/02/26 02:23:11;;;;;;;1.10;0.30;;;;;;;;;;1869866;76;26764;-44
2022/02/26 02:25:39;;;;;;;0.20;0.20;;;;;;;;;;1874035;76;26268;-46
2022/02/26 02:28:07;;;;;;;0.20;0.20;;;;;;;;;;1878931;76;26656;-44
2022/02/26 02:30:34;;;;;;;0.20;0.20;;;;;;;;;;1854448;75;26313;-45
2022/02/26 02:33:02;;;;;;;0.30;0.30;;;;;;;;;;1873590;75;26740;-44
2022/02/26 02:35:34;;;;;;;0.30;0.30;;;;;;;;;;1878458;76;26308;-44
2022/02/26 02:38:02;;;;;;;0.82;0.33;;;;;;;;;;1873336;76;27505;-44
2022/02/26 02:40:30;;;;;;;1.17;0.30;;;;;;;;;;1868295;76;26343;-43
2022/02/26 02:42:57;;;;;;;0.30;0.30;;;;;;;;;;1850029;76;26201;-44
2022/02/26 02:45:26;;;;;;;1.35;0.23;;;;;;;;;;1865389;76;26323;-44
2022/02/26 02:47:53;;;;;;;0.30;0.30;;;;;;;;;;1857268;76;26709;-45
2022/02/26 02:50:20;;;;;;;0.30;0.30;;;;;;;;;;1876811;76;26189;-44
2022/02/26 02:52:48;;;;;;;0.33;0.33;;;;;;;;;;1874205;76;26257;-44
2022/02/26 02:55:16;;;;;;;0.95;0.40;;;;;;;;;;1871629;76;26303;-45
2022/02/26 02:57:44;;;;;;;0.65;0.40;;;;;;;;;;1873732;76;26293;-44
2022/02/26 03:00:13;;;;;;;0.10;0.10;;;;;;;;;;1876489;76;26291;-44
2022/02/26 03:02:43;;;;;;;0.62;0.30;;;;;;;;;;1868320;75;26289;-45
2022/02/26 03:05:11;;;;;;;0.20;0.20;;;;;;;;;;1867988;76;26303;-46
2022/02/26 03:07:39;;;;;;;0.20;0.20;;;;;;;;;;1863601;76;27545;-46
2022/02/26 03:10:06;;;;;;;0.20;0.20;;;;;;;;;;1878134;75;26733;-47
2022/02/26 03:12:34;;;;;;;0.37;0.20;;;;;;;;;;1868771;76;26279;-47
2022/02/26 03:15:02;;;;;;;0.30;0.30;;;;;;;;;;1856122;75;26704;-44
2022/02/26 03:17:29;;;;;;;0.30;0.30;;;;;;;;;;1870655;76;26269;-46
2022/02/26 03:19:56;;;;;;;0.28;0.28;;;;;;;;;;1863798;76;26258;-46
2022/02/26 03:22:24;;;;;;;0.37;0.30;;;;;;;;;;1869588;76;26300;-46
2022/02/26 03:24:51;;;;;;;0.55;0.40;;;;;;;;;;1889879;76;26280;-45
2022/02/26 03:27:19;;;;;;;0.55;0.20;;;;;;;;;;1889804;76;26374;-44
2022/02/26 03:29:46;;;;;;;0.25;0.25;;;;;;;;;;1870000;76;26215;-44
2022/02/26 03:32:13;;;;;;;0.20;0.20;;;;;;;;;;1873667;76;26330;-45
2022/02/26 03:34:40;;;;;;;0.15;0.15;;;;;;;;;;1874264;76;26212;-45
2022/02/26 03:37:08;;;;;;;0.40;0.30;;;;;;;;;;1879558;75;26194;-45
2022/02/26 03:39:35;;;;;;;0.20;0.20;;;;;;;;;;1879314;76;26752;-45
2022/02/26 03:42:04;;;;;;;0.20;0.20;;;;;;;;;;1882651;74;26330;-45
2022/02/26 03:44:32;;;;;;;0.80;0.23;;;;;;;;;;1868337;76;26233;-44
2022/02/26 03:47:00;;;;;;;0.30;0.30;;;;;;;;;;1858383;76;26275;-46
2022/02/26 03:49:28;;;;;;;0.37;0.37;;;;;;;;;;1858381;76;26613;-46
2022/02/26 03:51:55;;;;;;;0.20;0.20;;;;;;;;;;1889021;76;26261;-45
2022/02/26 03:54:22;;;;;;;0.23;0.23;;;;;;;;;;1875726;76;26315;-47
2022/02/26 03:56:50;;;;;;;0.28;0.28;;;;;;;;;;1874863;76;26399;-45
2022/02/26 03:59:17;;;;;;;0.72;0.33;;;;;;;;;;1854811;76;26662;-47
2022/02/26 04:01:44;;;;;;;1.45;0.23;;;;;;;;;;1871401;76;26730;-44
2022/02/26 04:04:11;;;;;;;0.28;0.28;;;;;;;;;;1864001;76;26742;-45
2022/02/26 04:06:39;;;;;;;0.20;0.20;;;;;;;;;;1871700;76;26712;-45
2022/02/26 04:09:06;;;;;;;0.20;0.20;;;;;;;;;;1886099;76;26257;-44
2022/02/26 04:11:33;;;;;;;0.28;0.28;;;;;;;;;;1886414;76;26194;-45
2022/02/26 04:14:00;;;;;;;0.10;0.10;;;;;;;;;;1856253;76;26249;-45
2022/02/26 04:16:28;;;;;;;0.30;0.30;;;;;;;;;;1870153;76;26275;-44
2022/02/26 04:18:55;;;;;;;0.40;0.40;;;;;;;;;;1861847;76;26288;-46
2022/02/26 04:21:23;;;;;;;0.30;0.30;;;;;;;;;;1871774;76;26772;-44
2022/02/26 04:23:51;;;;;;;0.30;0.30;;;;;;;;;;1852466;76;26314;-46
2022/02/26 04:26:19;;;;;;;0.30;0.30;;;;;;;;;;1825028;77;26298;-46
2022/02/26 04:28:46;;;;;;;0.20;0.20;;;;;;;;;;1854407;76;26205;-46
2022/02/26 04:31:13;;;;;;;0.20;0.20;;;;;;;;;;1853420;77;26276;-45
2022/02/26 04:33:41;;;;;;;0.40;0.40;;;;;;;;;;1837272;77;26290;-46
2022/02/26 04:36:08;;;;;;;0.30;0.30;;;;;;;;;;1853056;76;26263;-46
2022/02/26 04:38:35;;;;;;;1.22;0.37;;;;;;;;;;1845834;77;26264;-47
2022/02/26 04:41:03;;;;;;;0.23;0.23;;;;;;;;;;1826830;77;26785;-47
2022/02/26 04:43:32;;;;;;;0.25;0.25;;;;;;;;;;1848016;76;26726;-46
2022/02/26 04:45:59;;;;;;;0.20;0.20;;;;;;;;;;1836111;76;26276;-46
2022/02/26 04:48:27;;;;;;;1.20;0.30;;;;;;;;;;1854359;77;26295;-47
2022/02/26 04:50:54;;;;;;;0.20;0.20;;;;;;;;;;1843488;77;26267;-49
2022/02/26 04:53:21;;;;;;;0.33;0.33;;;;;;;;;;1849539;76;26785;-45
2022/02/26 04:55:48;;;;;;;0.40;0.30;;;;;;;;;;1833665;76;26762;-44
2022/02/26 04:58:16;;;;;;;0.42;0.30;;;;;;;;;;1848973;77;26740;-45
2022/02/26 05:00:43;;;;;;;0.20;0.20;;;;;;;;;;1854042;77;26288;-46
2022/02/26 05:03:11;;;;;;;0.25;0.25;;;;;;;;;;1851518;76;26361;-44
2022/02/26 05:05:39;;;;;;;0.20;0.20;;;;;;;;;;1850293;76;26300;-44
2022/02/26 05:08:06;;;;;;;0.20;0.20;;;;;;;;;;1847323;76;25308;-44
2022/02/26 05:10:34;;;;;;;0.40;0.40;;;;;;;;;;1835920;77;25721;-43
2022/02/26 05:13:01;;;;;;;0.23;0.23;;;;;;;;;;1853989;76;26311;-44
2022/02/26 05:15:28;;;;;;;0.20;0.20;;;;;;;;;;1837487;77;26361;-46
2022/02/26 05:17:56;;;;;;;0.25;0.25;;;;;;;;;;1844395;76;26270;-45
2022/02/26 05:20:23;;;;;;;0.20;0.20;;;;;;;;;;1841367;77;26722;-44
2022/02/26 05:22:50;;;;;;;0.20;0.20;;;;;;;;;;1845687;76;26724;-48
2022/02/26 05:25:18;;;;;;;0.10;0.10;;;;;;;;;;1873131;76;26269;-45
2022/02/26 05:27:45;;;;;;;0.20;0.20;;;;;;;;;;1870080;76;26206;-43
2022/02/26 05:30:13;;;;;;;0.10;0.10;;;;;;;;;;1875197;76;26349;-44
2022/02/26 05:32:40;;;;;;;0.37;0.37;;;;;;;;;;1879090;76;26266;-46
2022/02/26 05:35:09;;;;;;;0.30;0.30;;;;;;;;;;1878469;76;26265;-44
2022/02/26 05:37:36;;;;;;;0.25;0.25;;;;;;;;;;1854754;76;26807;-47
2022/02/26 05:40:04;;;;;;;0.20;0.20;;;;;;;;;;1878572;76;27191;-45
2022/02/26 05:42:31;;;;;;;0.30;0.30;;;;;;;;;;1848633;76;26285;-45
2022/02/26 05:44:59;;;;;;;0.30;0.30;;;;;;;;;;1874457;76;26296;-46
2022/02/26 05:47:26;;;;;;;0.20;0.20;;;;;;;;;;1875840;76;26372;-44
2022/02/26 05:49:54;;;;;;;0.23;0.23;;;;;;;;;;1858048;76;26708;-45
2022/02/26 05:52:21;;;;;;;0.25;0.20;;;;;;;;;;1872871;76;26329;-44
2022/02/26 05:54:48;;;;;;;0.30;0.30;;;;;;;;;;1873605;76;26318;-47
2022/02/26 05:57:15;;;;;;;0.40;0.40;;;;;;;;;;1877080;76;26311;-44
2022/02/26 05:59:43;;;;;;;0.20;0.20;;;;;;;;;;1875592;76;26705;-44
2022/02/26 06:02:10;;;;;;;0.20;0.20;;;;;;;;;;1866558;76;26789;-46
2022/02/26 06:04:39;;;;;;;0.30;0.30;;;;;;;;;;1873565;76;26283;-46
2022/02/26 06:07:06;;;;;;;0.20;0.20;;;;;;;;;;1858781;76;26271;-45
2022/02/26 06:09:33;;;;;;;0.35;0.35;;;;;;;;;;1872792;76;26277;-46
2022/02/26 06:12:01;;;;;;;2.42;0.30;;;;;;;;;;1869629;75;26269;-47
2022/02/26 06:14:28;;;;;;;0.30;0.20;;;;;;;;;;1870774;76;26320;-44
2022/02/26 06:16:55;;;;;;;0.20;0.20;;;;;;;;;;1874167;75;26730;-45
2022/02/26 06:19:23;;;;;;;0.20;0.20;;;;;;;;;;1875136;76;26367;-45
2022/02/26 06:21:50;;;;;;;0.33;0.33;;;;;;;;;;1864489;76;26286;-45
2022/02/26 06:24:17;;;;;;;0.33;0.25;;;;;;;;;;1877579;76;26291;-45
2022/02/26 06:26:45;;;;;;;0.35;0.35;;;;;;;;;;1881704;76;26646;-44
2022/02/26 06:29:12;;;;;;;0.20;0.20;;;;;;;;;;1822801;78;26294;-45
2022/02/26 06:31:40;;;;;;;0.20;0.20;;;;;;;;;;1833464;78;26303;-44
2022/02/26 06:34:07;;;;;;;0.30;0.30;;;;;;;;;;1831690;78;26305;-44
2022/02/26 06:36:36;;;;;;;0.17;0.17;;;;;;;;;;1840844;77;26252;-44
2022/02/26 06:39:03;;;;;;;0.20;0.20;;;;;;;;;;1847531;77;26307;-44
2022/02/26 06:41:31;;;;;;;0.50;0.50;;;;;;;;;;1817529;77;26228;-44
2022/02/26 06:43:58;;;;;;;0.10;0.10;;;;;;;;;;1820046;78;26830;-47
2022/02/26 06:46:25;;;;;;;1.65;0.30;;;;;;;;;;1837856;77;26361;-45
2022/02/26 06:48:53;;;;;;;1.65;0.10;;;;;;;;;;1820292;78;26350;-46
2022/02/26 06:51:20;;;;;;;0.30;0.30;;;;;;;;;;1849099;76;26276;-45
2022/02/26 06:53:47;;;;;;;0.23;0.23;;;;;;;;;;1840836;76;26288;-45
2022/02/26 06:56:14;;;;;;;0.30;0.30;;;;;;;;;;1849500;77;26314;-45
2022/02/26 06:58:42;;;;;;;0.40;0.40;;;;;;;;;;1849809;77;26260;-45
2022/02/26 07:01:09;;;;;;;0.50;0.20;;;;;;;;;;1838846;77;26218;-44
2022/02/26 07:03:37;;;;;;;0.57;0.53;;;;;;;;;;1841992;77;26278;-44
2022/02/26 07:06:04;;;;;;;0.72;0.40;;;;;;;;;;1817532;78;26306;-46
2022/02/26 07:08:32;;;;;;;0.68;0.53;;;;;;;;;;1827731;78;26223;-43
2022/02/26 07:11:00;;;;;;;0.57;0.50;;;;;;;;;;1817128;79;26291;-44
2022/02/26 07:13:28;;;;;;;1.12;0.68;;;;;;;;;;1840699;77;26284;-45
2022/02/26 07:15:55;;;;;;;0.75;0.55;;;;;;;;;;1809006;78;26791;-45
2022/02/26 07:18:22;;;;;;;2.40;0.90;;;;;;;;;;1842479;77;26306;-43
2022/02/26 07:20:50;;;;;;;1.27;1.00;;;;;;;;;;1839359;77;26362;-44
2022/02/26 07:23:18;;;;;;;1.95;0.62;;;;;;;;;;1808347;77;26235;-46
2022/02/26 07:25:45;;;;;;;1.17;0.60;;;;;;;;;;1866337;76;26253;-46
2022/02/26 07:28:13;;;;;;;2.15;0.70;;;;;;;;;;1871006;76;26322;-44
2022/02/26 07:30:42;;;;;;;0.85;0.70;;;;;;;;;;1879800;76;26280;-44
2022/02/26 07:33:11;;;;;;;2.20;0.72;;;;;;;;;;1873677;76;26272;-45
2022/02/26 07:35:38;;;;;;;3.20;0.80;;;;;;;;;;1874439;75;26450;-46
2022/02/26 07:38:06;;;;;;;1.05;0.60;;;;;;;;;;1866132;76;26260;-45
2022/02/26 07:40:33;;;;;;;1.75;0.62;;;;;;;;;;1863116;76;26210;-44
2022/02/26 07:43:01;;;;;;;1.40;0.60;;;;;;;;;;1864801;76;26265;-44
2022/02/26 07:45:28;;;;;;;5.60;0.90;;;;;;;;;;1865929;75;26190;-44
2022/02/26 07:47:55;;;;;;;1.55;0.80;;;;;;;;;;1874384;76;26275;-43
2022/02/26 07:50:22;;;;;;;3.65;0.80;;;;;;;;;;1865452;76;26241;-43
2022/02/26 07:52:50;;;;;;;2.25;0.78;;;;;;;;;;1877265;75;26343;-43
2022/02/26 07:55:17;;;;;;;1.22;0.88;;;;;;;;;;1864330;75;26402;-44
2022/02/26 07:57:44;;;;;;;2.67;0.80;;;;;;;;;;1865835;76;26804;-46
2022/02/26 08:00:12;;;;;;;1.00;0.80;;;;;;;;;;1862225;76;26260;-47
2022/02/26 08:02:39;;;;;;;3.37;0.70;;;;;;;;;;1869714;76;26724;-49
2022/02/26 08:05:07;;;;;;;2.62;0.95;;;;;;;;;;1871521;76;26658;-50
2022/02/26 08:07:34;;;;;;;3.40;0.42;;;;;;;;;;1857505;76;26245;-48
2022/02/26 08:10:02;;;;;;;1.85;0.78;;;;;;;;;;1881900;75;26309;-52
2022/02/26 08:12:30;;;;;;;4.55;0.90;;;;;;;;;;1872268;75;26274;-47
2022/02/26 08:14:57;;;;;;;3.22;0.70;;;;;;;;;;1867742;76;26210;-52
2022/02/26 08:17:25;;;;;;;0.60;0.60;;;;;;;;;;1871948;76;26246;-49
2022/02/26 08:19:52;;;;;;;3.10;0.80;;;;;;;;;;1878837;76;26721;-47
2022/02/26 08:22:19;;;;;;;0.60;0.60;;;;;;;;;;1870754;76;27369;-51
2022/02/26 08:24:47;;;;;;;1.72;0.55;;;;;;;;;;1861578;76;26965;-49
2022/02/26 08:27:14;;;;;;;3.08;0.60;;;;;;;;;;1859284;76;26240;-46
2022/02/26 08:29:42;;;;;;;3.12;0.65;;;;;;;;;;1869865;76;26789;-48
2022/02/26 08:32:10;;;;;;;1.62;0.80;;;;;;;;;;1862861;76;26268;-52
2022/02/26 08:34:37;;;;;;;0.50;0.40;;;;;;;;;;1861348;76;26767;-49
2022/02/26 08:37:05;;;;;;;0.55;0.40;;;;;;;;;;1861922;76;26335;-50
2022/02/26 08:39:32;;;;;;;2.05;0.55;;;;;;;;;;1864022;76;26337;-51
2022/02/26 08:41:59;;;;;;;2.17;0.70;;;;;;;;;;1866809;76;26700;-50
2022/02/26 08:44:27;;;;;;;1.17;0.50;;;;;;;;;;1872334;76;26241;-48
2022/02/26 08:46:54;;;;;;;1.82;0.60;;;;;;;;;;1866013;76;26198;-55
2022/02/26 08:49:22;;;;;;;1.40;0.70;;;;;;;;;;1874685;76;26343;-49
2022/02/26 08:51:49;;;;;;;0.70;0.60;;;;;;;;;;1865139;76;26269;-51
2022/02/26 08:54:17;;;;;;;2.98;0.60;;;;;;;;;;1874391;76;26749;-49
2022/02/26 08:56:46;;;;;;;2.25;0.55;;;;;;;;;;1876051;76;26328;-54
2022/02/26 08:59:13;;;;;;;0.90;0.60;;;;;;;;;;1860326;76;26813;-52
2022/02/26 09:01:40;;;;;;;1.40;0.50;;;;;;;;;;1876305;76;26333;-53
2022/02/26 09:04:08;;;;;;;0.65;0.50;;;;;;;;;;1873792;75;26274;-49
2022/02/26 09:06:36;;;;;;;1.85;0.50;;;;;;;;;;1852429;76;26222;-51
2022/02/26 09:09:05;;;;;;;0.60;0.60;;;;;;;;;;1865349;76;26262;-51
2022/02/26 09:11:32;;;;;;;0.60;0.60;;;;;;;;;;1866158;76;26280;-50
2022/02/26 09:13:59;;;;;;;1.12;0.60;;;;;;;;;;1848692;76;26352;-52
2022/02/26 09:16:27;;;;;;;1.00;0.60;;;;;;;;;;1870736;75;26359;-52
2022/02/26 09:18:54;;;;;;;0.82;0.70;;;;;;;;;;1877928;75;26733;-52
2022/02/26 09:21:21;;;;;;;0.80;0.42;;;;;;;;;;1853056;76;26250;-55
2022/02/26 09:23:48;;;;;;;0.70;0.70;;;;;;;;;;1878637;76;26282;-51
2022/02/26 09:26:16;;;;;;;0.62;0.62;;;;;;;;;;1878411;76;26267;-48
2022/02/26 09:28:43;;;;;;;0.55;0.55;;;;;;;;;;1869354;75;26271;-51
2022/02/26 09:31:11;;;;;;;0.50;0.50;;;;;;;;;;1853308;76;26761;-50
2022/02/26 09:33:39;;;;;;;0.93;0.55;;;;;;;;;;1873191;75;26261;-48
2022/02/26 09:36:07;;;;;;;0.60;0.60;;;;;;;;;;1875740;76;26331;-51
2022/02/26 09:38:35;;;;;;;0.82;0.60;;;;;;;;;;1877027;76;26361;-50
2022/02/26 09:41:03;;;;;;;1.25;0.50;;;;;;;;;;1858041;76;26230;-49
2022/02/26 09:43:32;;;;;;;0.53;0.53;;;;;;;;;;1869689;75;26720;-48
2022/02/26 09:45:59;;;;;;;0.40;0.40;;;;;;;;;;1879296;76;26331;-48
2022/02/26 09:48:27;;;;;;;0.47;0.47;;;;;;;;;;1872436;76;26303;-50
2022/02/26 09:50:54;;;;;;;0.40;0.40;;;;;;;;;;1854509;76;26275;-54
2022/02/26 09:53:22;;;;;;;0.50;0.50;;;;;;;;;;1859669;76;26689;-52
2022/02/26 09:55:51;;;;;;;0.62;0.60;;;;;;;;;;1858335;76;26376;-50
2022/02/26 09:58:19;;;;;;;1.40;0.50;;;;;;;;;;1867836;76;26292;-52
2022/02/26 10:00:47;;;;;;;0.53;0.53;;;;;;;;;;1859461;76;26277;-49
2022/02/26 10:03:28;;;;;;;0.50;0.50;;;;;;;;;;1862556;75;26309;-51
2022/02/26 10:06:14;;;;;;;0.60;0.60;;;;;;;;;;1877041;75;26305;-50
2022/02/26 10:08:43;;;;;;;0.37;0.37;;;;;;;;;;1895532;75;26225;-51
2022/02/26 10:11:30;;;;;;;0.68;0.55;;;;;;;;;;1850957;75;26650;-52
2022/02/26 10:14:05;;;;;;;0.30;0.30;;;;;;;;;;1877526;75;26354;-48
2022/02/26 10:16:52;;;;;;;0.40;0.40;;;;;;;;;;1880893;76;26261;-49
2022/02/26 10:19:20;;;;;;;0.70;0.42;;;;;;;;;;1880922;76;26330;-49
2022/02/26 10:21:48;;;;;;;0.30;0.30;;;;;;;;;;1872542;76;26267;-51
2022/02/26 10:24:15;;;;;;;0.55;0.55;;;;;;;;;;1877608;76;26343;-49
2022/02/26 10:26:47;;;;;;;0.40;0.40;;;;;;;;;;1880831;76;26870;-51
2022/02/26 10:29:15;;;;;;;0.50;0.50;;;;;;;;;;1880182;76;26342;-48
2022/02/26 10:31:48;;;;;;;0.53;0.53;;;;;;;;;;1880834;76;26298;-49
2022/02/26 10:34:25;;;;;;;0.40;0.40;;;;;;;;;;1880942;76;26270;-48
2022/02/26 10:37:00;;;;;;;0.30;0.30;;;;;;;;;;1880872;76;26347;-47
2022/02/26 10:39:38;;;;;;;0.30;0.30;;;;;;;;;;1879972;76;26284;-54
2022/02/26 10:42:07;;;;;;;0.30;0.30;;;;;;;;;;1880975;76;26214;-47
2022/02/26 10:44:35;;;;;;;0.40;0.40;;;;;;;;;;1864029;76;26831;-51
2022/02/26 10:47:15;;;;;;;0.30;0.30;;;;;;;;;;1880770;76;26269;-52
2022/02/26 10:49:48;;;;;;;0.42;0.42;;;;;;;;;;1874801;76;26323;-51
2022/02/26 10:52:17;;;;;;;0.30;0.30;;;;;;;;;;1849095;77;26635;-48
2022/02/26 10:54:45;;;;;;;0.30;0.30;;;;;;;;;;1875022;76;26293;-48
2022/02/26 10:57:13;;;;;;;0.40;0.40;;;;;;;;;;1879537;76;26253;-51
2022/02/26 10:59:42;;;;;;;0.30;0.30;;;;;;;;;;1878624;75;26323;-48
2022/02/26 11:02:11;;;;;;;0.20;0.20;;;;;;;;;;1880881;76;26292;-50
2022/02/26 11:04:38;;;;;;;0.42;0.42;;;;;;;;;;1878076;76;26222;-49
2022/02/26 11:07:06;;;;;;;0.40;0.40;;;;;;;;;;1870887;76;26289;-50
2022/02/26 11:09:35;;;;;;;0.45;0.45;;;;;;;;;;1880738;76;26269;-51
2022/02/26 11:12:03;;;;;;;0.30;0.30;;;;;;;;;;1868050;76;26225;-47
2022/02/26 11:14:31;;;;;;;0.35;0.35;;;;;;;;;;1866489;76;26356;-50
2022/02/26 11:17:01;;;;;;;0.30;0.30;;;;;;;;;;1878903;76;26246;-47
2022/02/26 11:19:29;;;;;;;0.40;0.40;;;;;;;;;;1880602;76;26683;-48
2022/02/26 11:22:00;;;;;;;0.30;0.30;;;;;;;;;;1870671;76;26295;-55
2022/02/26 11:24:32;;;;;;;0.30;0.30;;;;;;;;;;1843774;76;26259;-47
2022/02/26 11:26:56;;;;;;;0.40;0.40;;;;;;;;;;1871742;76;26295;-51
2022/02/26 11:29:24;;;;;;;0.40;0.40;;;;;;;;;;1878754;76;26234;-49
2022/02/26 11:31:59;;;;;;;1.40;0.40;;;;;;;;;;1867968;76;26395;-50
2022/02/26 11:34:27;;;;;;;0.57;0.40;;;;;;;;;;1867581;75;26331;-51
2022/02/26 11:36:59;;;;;;;0.35;0.35;;;;;;;;;;1866401;76;26270;-48
2022/02/26 11:39:31;;;;;;;0.45;0.45;;;;;;;;;;1861225;76;26799;-52
2022/02/26 11:42:18;;;;;;;0.60;0.60;;;;;;;;;;1873759;76;25659;-49
2022/02/26 11:44:46;;;;;;;0.45;0.45;;;;;;;;;;1858371;75;26226;-50
2022/02/26 11:47:18;;;;;;;1.10;0.30;;;;;;;;;;1863892;75;26251;-50
2022/02/26 11:50:03;;;;;;;0.50;0.50;;;;;;;;;;1869055;76;26241;-50
2022/02/26 11:52:41;;;;;;;0.40;0.40;;;;;;;;;;1872677;76;26718;-49
2022/02/26 11:55:26;;;;;;;0.40;0.40;;;;;;;;;;1860420;76;27431;-50
2022/02/26 11:57:54;;;;;;;0.40;0.40;;;;;;;;;;1859983;76;26296;-53
2022/02/26 12:00:22;;;;;;;1.17;0.60;;;;;;;;;;1859882;76;26626;-52
2022/02/26 12:03:07;;;;;;;0.30;0.30;;;;;;;;;;1857245;76;26238;-48
2022/02/26 12:05:35;;;;;;;0.47;0.47;;;;;;;;;;1854332;76;26432;-48
2022/02/26 12:08:04;;;;;;;0.93;0.50;;;;;;;;;;1861210;76;26253;-52
2022/02/26 12:10:31;;;;;;;0.40;0.40;;;;;;;;;;1856387;75;26199;-48
2022/02/26 12:12:58;;;;;;;0.57;0.47;;;;;;;;;;1869200;75;26281;-49
2022/02/26 12:15:27;;;;;;;0.40;0.40;;;;;;;;;;1880541;76;26732;-49
2022/02/26 12:17:56;;;;;;;0.45;0.45;;;;;;;;;;1861082;76;26805;-50
2022/02/26 12:20:24;;;;;;;0.30;0.30;;;;;;;;;;1879609;76;26681;-51
2022/02/26 12:22:52;;;;;;;0.30;0.30;;;;;;;;;;1873178;76;26776;-51
2022/02/26 12:25:19;;;;;;;0.40;0.40;;;;;;;;;;1856923;76;26356;-53
2022/02/26 12:27:48;;;;;;;0.40;0.40;;;;;;;;;;1875369;76;26732;-52
2022/02/26 12:30:16;;;;;;;0.40;0.40;;;;;;;;;;1854938;76;26306;-51
2022/02/26 12:32:53;;;;;;;0.20;0.20;;;;;;;;;;1858811;76;26737;-47
2022/02/26 12:35:22;;;;;;;0.40;0.40;;;;;;;;;;1854114;76;26283;-48
2022/02/26 12:37:51;;;;;;;0.42;0.40;;;;;;;;;;1860324;76;26661;-51
2022/02/26 12:40:22;;;;;;;0.33;0.33;;;;;;;;;;1858274;76;26735;-48
2022/02/26 12:42:50;;;;;;;0.30;0.30;;;;;;;;;;1867387;76;26249;-53
2022/02/26 12:45:18;;;;;;;0.37;0.37;;;;;;;;;;1875134;75;26669;-49
2022/02/26 12:47:46;;;;;;;0.30;0.30;;;;;;;;;;1844348;76;26304;-50
2022/02/26 12:50:15;;;;;;;0.35;0.35;;;;;;;;;;1870936;76;26193;-49
2022/02/26 12:52:43;;;;;;;0.33;0.30;;;;;;;;;;1841057;76;26267;-48
2022/02/26 12:55:12;;;;;;;0.40;0.40;;;;;;;;;;1870014;75;26674;-51
2022/02/26 12:57:49;;;;;;;0.40;0.40;;;;;;;;;;1868224;76;26662;-48
2022/02/26 13:00:23;;;;;;;0.30;0.30;;;;;;;;;;1872259;75;26242;-51
2022/02/26 13:02:52;;;;;;;0.47;0.47;;;;;;;;;;1872717;76;26191;-49
2022/02/26 13:05:21;;;;;;;0.33;0.33;;;;;;;;;;1875620;76;26257;-51
2022/02/26 13:07:49;;;;;;;0.30;0.30;;;;;;;;;;1865564;76;26335;-52
2022/02/26 13:10:17;;;;;;;0.28;0.28;;;;;;;;;;1861442;76;26373;-49
2022/02/26 13:12:44;;;;;;;0.30;0.30;;;;;;;;;;1868601;76;26740;-48
2022/02/26 13:15:12;;;;;;;0.40;0.40;;;;;;;;;;1866684;76;26705;-48
2022/02/26 13:17:40;;;;;;;0.70;0.30;;;;;;;;;;1873721;76;26258;-50
2022/02/26 13:20:09;;;;;;;0.35;0.35;;;;;;;;;;1856387;76;26257;-49
2022/02/26 13:22:47;;;;;;;0.37;0.37;;;;;;;;;;1863910;75;26241;-48
2022/02/26 13:25:18;;;;;;;0.72;0.40;;;;;;;;;;1862448;76;26783;-50
2022/02/26 13:27:48;;;;;;;0.20;0.20;;;;;;;;;;1874659;76;26670;-50
2022/02/26 13:30:16;;;;;;;0.50;0.50;;;;;;;;;;1875206;76;26270;-51
2022/02/26 13:32:45;;;;;;;0.40;0.40;;;;;;;;;;1857402;76;26307;-51
2022/02/26 13:35:13;;;;;;;0.25;0.25;;;;;;;;;;1868297;76;26249;-48
2022/02/26 13:37:40;;;;;;;0.30;0.30;;;;;;;;;;1868565;76;27361;-49
2022/02/26 13:40:09;;;;;;;0.40;0.40;;;;;;;;;;1869106;75;26378;-51
2022/02/26 13:42:38;;;;;;;0.40;0.40;;;;;;;;;;1863638;76;26629;-47
2022/02/26 13:45:11;;;;;;;0.47;0.42;;;;;;;;;;1862623;75;26744;-51
2022/02/26 13:47:37;;;;;;;0.40;0.40;;;;;;;;;;1844835;76;26312;-49
2022/02/26 13:50:06;;;;;;;0.40;0.40;;;;;;;;;;1834859;76;26256;-51
2022/02/26 13:52:35;;;;;;;0.50;0.50;;;;;;;;;;1863952;76;26260;-49
2022/02/26 13:55:02;;;;;;;0.40;0.40;;;;;;;;;;1861249;76;26332;-49
2022/02/26 13:57:31;;;;;;;0.50;0.50;;;;;;;;;;1874144;76;26258;-52
2022/02/26 14:00:10;;;;;;;0.50;0.50;;;;;;;;;;1857219;76;26715;-50
2022/02/26 14:02:39;;;;;;;0.40;0.40;;;;;;;;;;1862085;76;26316;-49
2022/02/26 14:05:08;;;;;;;0.40;0.40;;;;;;;;;;1850950;76;26297;-52
2022/02/26 14:07:37;;;;;;;0.40;0.40;;;;;;;;;;1865505;76;26275;-49
2022/02/26 14:10:05;;;;;;;0.40;0.40;;;;;;;;;;1868430;76;26753;-50
2022/02/26 14:12:33;;;;;;;0.40;0.40;;;;;;;;;;1871236;76;26264;-51
2022/02/26 14:15:03;;;;;;;0.33;0.33;;;;;;;;;;1861270;76;26609;-52
2022/02/26 14:17:30;;;;;;;0.50;0.50;;;;;;;;;;1871219;76;26301;-50
2022/02/26 14:20:00;;;;;;;0.47;0.47;;;;;;;;;;1872966;76;26339;-50
2022/02/26 14:22:30;;;;;;;0.37;0.37;;;;;;;;;;1860950;76;26830;-49
2022/02/26 14:24:59;;;;;;;0.85;0.50;;;;;;;;;;1864133;76;26755;-47
2022/02/26 14:27:27;;;;;;;0.50;0.50;;;;;;;;;;1872397;76;26756;-52
2022/02/26 14:30:11;;;;;;;0.40;0.40;;;;;;;;;;1873597;76;26378;-51
2022/02/26 14:32:40;;;;;;;0.50;0.50;;;;;;;;;;1860332;76;26316;-48
2022/02/26 14:35:08;;;;;;;0.40;0.40;;;;;;;;;;1873519;76;26334;-53
2022/02/26 14:37:37;;;;;;;0.50;0.50;;;;;;;;;;1866648;76;26245;-50
2022/02/26 14:40:05;;;;;;;0.57;0.50;;;;;;;;;;1863376;76;26249;-54
2022/02/26 14:42:33;;;;;;;0.30;0.30;;;;;;;;;;1872981;75;26272;-50
2022/02/26 14:45:01;;;;;;;0.57;0.40;;;;;;;;;;1863378;76;26297;-52
2022/02/26 14:47:28;;;;;;;0.30;0.30;;;;;;;;;;1868671;76;26281;-50
2022/02/26 14:49:55;;;;;;;0.47;0.47;;;;;;;;;;1874780;76;26347;-53
2022/02/26 14:52:23;;;;;;;0.37;0.37;;;;;;;;;;1856111;76;26248;-55
2022/02/26 14:54:50;;;;;;;0.35;0.35;;;;;;;;;;1847587;76;26281;-47
2022/02/26 14:57:17;;;;;;;0.40;0.40;;;;;;;;;;1856231;76;26297;-52